Tiempo atmosférico en la estación meteorológica de Santa Susana, Barcelona (45 m.)



Fecha
DESCASC
Temp. máxima en grados centígrados (hora)
DESCASC
Temp. mínima en grados centígrados (hora)
DESCASC
Temp. media en grados centígrados
DESCASC
Racha de viento máxima en m/sg (hora)
DESCASC
Velocidad máxima media en intervalos de 10 minutos(hora)
DESCASC
Precipitaciones diarias en mm
DESCASC
Precipitaciones de 00:00 a 06:00 en mm
DESCASC
Precipitaciones de 06:00 a 12:00 en mm
DESCASC
Precipitaciones de 12:00 a 18:00 en mm
DESCASC
Precipitaciones de 18:00 a 24:00 en mm
DESCASC

Gráficas

Temp. máximas Temp. mínimas Temp. medias Precipitaciones Rachas de viento máximas Velocidades máximas media en intervalos de 10 minutos

Datos horarios

Fecha y hora oficial Temperatura (ºC) Velocidad del viento (km/h) Dirección del viento Racha (km/h) Dirección de racha Precipitación (mm) Presión (hPa) Tendencia (hPa) Humedad (%)
2018-12-09 23:00:00 6.7 0 Calma 5 Este 0 -- -- 93
2018-12-09 22:00:00 6.8 3 Nordeste 6 Este 0 -- -- 91
2018-12-09 21:00:00 6.9 3 Nordeste 6 Este 0 -- -- 91
2018-12-09 20:00:00 7.6 0 Calma 6 Norte 0 -- -- 91
2018-12-09 19:00:00 8.2 0 Calma 5 Noroeste 0 -- -- 90
2018-12-09 18:00:00 9.3 3 Nordeste 5 Este 0 -- -- 88
2018-12-09 17:00:00 11.2 0 Calma 12 Este 0 -- -- 81
2018-12-09 16:00:00 14.9 7 Nordeste 13 Nordeste 0 -- -- 59
2018-12-09 15:00:00 16.1 6 Nordeste 11 Este 0 -- -- 53
2018-12-09 14:00:00 15.1 3 Este 11 Sudoeste 0 -- -- 59
2018-12-09 13:00:00 13.7 3 Sudoeste 9 Sudoeste 0 -- -- 69
2018-12-09 12:00:00 12.9 2 Sudoeste 5 Sudoeste 0 -- -- 81
2018-12-09 11:00:00 9.5 0 Calma 3 Este 0 -- -- 91
2018-12-09 10:00:00 6.2 4 Nordeste 10 Este 0 -- -- 93
2018-12-09 09:00:00 4.8 3 Nordeste 8 Noroeste 0 -- -- 92
2018-12-09 08:00:00 4.1 3 Nordeste 6 Este 0 -- -- 92
2018-12-09 07:00:00 4.6 0 Calma 8 Nordeste 0 -- -- 93
2018-12-09 06:00:00 4.3 3 Nordeste 8 Este 0 -- -- 93
2018-12-09 05:00:00 4.4 0 Calma 6 Noroeste 0 -- -- 92
2018-12-09 04:00:00 5 0 Calma 6 Noroeste 0 -- -- 92
2018-12-09 03:00:00 4.9 2 Este 5 Nordeste 0 -- -- 93
2018-12-09 02:00:00 5.6 0 Calma 7 Este 0 -- -- 92
2018-12-09 01:00:00 5.3 4 Nordeste 7 Este 0 -- -- 93
2018-12-09 00:00:00 5.2 2 Nordeste 5 Este 0 -- -- 92
2018-12-08 23:00:00 5.4 0 Calma 6 Este 0 -- -- 93
2018-12-08 22:00:00 6.2 2 Nordeste 6 Noroeste 0 -- -- 93
2018-12-08 21:00:00 7.1 0 Calma 6 Noroeste 0 -- -- 91
2018-12-08 20:00:00 7 0 Calma 6 Nordeste 0 -- -- 91
2018-12-08 19:00:00 8.2 2 Nordeste 5 Nordeste 0 -- -- 90
2018-12-08 18:00:00 9.4 0 Calma 5 Este 0 -- -- 89
2018-12-08 17:00:00 11.4 0 Calma 6 Sudoeste 0 -- -- 84
2018-12-08 16:00:00 13.9 5 Sudoeste 14 Sudoeste 0 -- -- 68
2018-12-08 15:00:00 14.6 4 Sudoeste 21 Sudoeste 0 -- -- 66
2018-12-08 14:00:00 14.3 10 Sudoeste 22 Sudoeste 0 -- -- 66
2018-12-08 13:00:00 14.5 8 Sudoeste 20 Sudoeste 0 -- -- 67
2018-12-08 12:00:00 14 4 Oeste 12 Sudoeste 0 -- -- 71
2018-12-08 11:00:00 12.2 0 Calma 4 Noroeste 0 -- -- 73
2018-12-08 10:00:00 10.6 0 Calma 9 Noroeste 0 -- -- 78
2018-12-08 09:00:00 10.6 3 Norte 13 Noroeste 0 -- -- 78
2018-12-08 08:00:00 8.5 3 Nordeste 12 Nordeste 0 -- -- 87
2018-12-08 07:00:00 8.9 7 Nordeste 13 Nordeste 0 -- -- 87
2018-12-08 06:00:00 9.1 3 Nordeste 7 Este 0 -- -- 90
2018-12-08 05:00:00 8.9 3 Este 5 Este 0 -- -- 91
2018-12-08 04:00:00 8.1 4 Nordeste 8 Este 0 -- -- 92
2018-12-08 03:00:00 7.4 3 Nordeste 9 Noroeste 0 -- -- 93
2018-12-08 02:00:00 6.5 3 Este 6 Nordeste 0 -- -- 93
2018-12-08 01:00:00 6.5 0 Calma 7 Este 0 -- -- 91
2018-12-08 00:00:00 6.5 0 Calma 8 Noroeste 0 -- -- 91
2018-12-07 23:00:00 6.2 2 Nordeste 7 Este 0 -- -- 91
2018-12-07 22:00:00 6.5 0 Calma 5 Nordeste 0 -- -- 91
2018-12-07 21:00:00 6.8 0 Calma 6 Noroeste 0 -- -- 91
2018-12-07 20:00:00 7.3 3 Nordeste 8 Noroeste 0 -- -- 91
2018-12-07 19:00:00 8 0 Calma 6 Noroeste 0 -- -- 91
2018-12-07 18:00:00 9.4 2 Nordeste 5 Noroeste 0 -- -- 90
2018-12-07 17:00:00 11 0 Calma 5 Sudoeste 0 -- -- 85
2018-12-07 16:00:00 13.2 3 Sudoeste 13 Sudoeste 0 -- -- 72
2018-12-07 15:00:00 14.7 5 Sudoeste 14 Sudoeste 0 -- -- 65
2018-12-07 14:00:00 14.2 8 Sudoeste 14 Sudoeste 0 -- -- 65
2018-12-07 13:00:00 14.1 6 Sudoeste 15 Sudoeste 0 -- -- 71
2018-12-07 12:00:00 13.2 6 Sudoeste 14 Sudoeste 0 -- -- 86
2018-12-07 11:00:00 10.7 4 Nordeste 9 Nordeste 0 -- -- 92
2018-12-07 10:00:00 9.4 4 Nordeste 8 Este 0 -- -- 93
2018-12-07 09:00:00 8.7 0 Calma 4 Noroeste 0 -- -- 93
2018-12-07 08:00:00 8.4 0 Calma 5 Nordeste 0 -- -- 92
2018-12-07 07:00:00 7.2 2 Nordeste 6 Este 0 -- -- 93
2018-12-07 06:00:00 7 4 Este 6 Este 0 -- -- 92
2018-12-07 05:00:00 6.7 0 Calma 4 Nordeste 0 -- -- 93
2018-12-07 04:00:00 6.7 0 Calma 4 Nordeste 0 -- -- 93
2018-12-07 03:00:00 7.6 0 Calma 5 Noroeste 0 -- -- 92
2018-12-07 02:00:00 7.4 0 Calma 7 Este 0 -- -- 93
2018-12-07 01:00:00 7.4 2 Nordeste 4 Este 0 -- -- 91
2018-12-07 00:00:00 7.4 0 Calma 3 Nordeste 0 -- -- 91
2018-12-06 23:00:00 7.5 0 Calma 6 Nordeste 0 -- -- 91
2018-12-06 22:00:00 7.7 2 Nordeste 4 Nordeste 0 -- -- 91
2018-12-06 21:00:00 8 0 Calma 5 Nordeste 0 -- -- 91
2018-12-06 20:00:00 8.6 0 Calma 5 Noroeste 0 -- -- 91
2018-12-06 19:00:00 9.1 0 Calma 6 Nordeste 0 -- -- 90
2018-12-06 18:00:00 10.5 0 Calma 4 Oeste 0 -- -- 90
2018-12-06 17:00:00 11.9 0 Calma 10 Sudoeste 0 -- -- 86
2018-12-06 16:00:00 14.7 7 Sudoeste 19 Sudoeste 0 -- -- 72
2018-12-06 15:00:00 16.5 10 Sudoeste 19 Sur 0 -- -- 66
2018-12-06 14:00:00 15.8 6 Sudoeste 20 Sudoeste 0 -- -- 70
2018-12-06 13:00:00 16.9 6 Sudoeste 19 Sur 0 -- -- 66
2018-12-06 12:00:00 15.9 6 Oeste 15 Oeste 0 -- -- 71
2018-12-06 11:00:00 14 0 Calma 6 Sudoeste 0 -- -- 92
2018-12-06 10:00:00 12.3 3 Nordeste 5 Nordeste 0 -- -- 92
2018-12-06 09:00:00 10.5 0 Calma 5 Este 0 -- -- 92
2018-12-06 08:00:00 9 3 Nordeste 5 Este 0 -- -- 92
2018-12-06 07:00:00 9.2 3 Nordeste 6 Nordeste 0 -- -- 92
2018-12-06 06:00:00 9.4 4 Este 6 Este 0 -- -- 93
2018-12-06 05:00:00 10.9 0 Calma 10 Noroeste 0 -- -- 93
2018-12-06 04:00:00 10.2 0 Calma 10 Noroeste 0 -- -- 93
2018-12-06 03:00:00 9.4 0 Calma 9 Noroeste 0 -- -- 93
2018-12-06 02:00:00 11.2 3 Nordeste 11 Este 0 -- -- 91
2018-12-06 01:00:00 11.5 5 Nordeste 15 Nordeste 0 -- -- 91
2018-12-06 00:00:00 11.6 5 Norte 14 Noroeste 0 -- -- 92
2018-12-05 23:00:00 10.5 4 Nordeste 8 Nordeste 0 -- -- 93
2018-12-05 22:00:00 10.1 2 Nordeste 6 Noroeste 0 -- -- 91
2018-12-05 21:00:00 9.9 0 Calma 5 Noroeste 0 -- -- 91
2018-12-05 20:00:00 10.2 0 Calma 5 Norte 0 -- -- 91
2018-12-05 19:00:00 10.9 0 Calma 6 Noroeste 0 -- -- 91
2018-12-05 18:00:00 12.1 2 Nordeste 5 Norte 0 -- -- 91
2018-12-05 17:00:00 14 2 Sudoeste 13 Sudoeste 0 -- -- 89
2018-12-05 16:00:00 16 5 Sudoeste 15 Sudoeste 0 -- -- 81
2018-12-05 15:00:00 16.5 9 Sudoeste 14 Sudoeste 0 -- -- 74
2018-12-05 14:00:00 16.1 6 Sudoeste 13 Sudoeste 0 -- -- 70
2018-12-05 13:00:00 14.7 2 Nordeste 14 Sudoeste 0 -- -- 80
2018-12-05 12:00:00 13.2 0 Calma 9 Sudoeste 0 -- -- 91
2018-12-05 11:00:00 12.8 0 Calma 6 Norte 0 -- -- 92
2018-12-05 10:00:00 11.3 0 Calma 6 Nordeste 0 -- -- 92
2018-12-05 09:00:00 10.3 0 Calma 6 Noroeste 0 -- -- 93
2018-12-05 08:00:00 8.9 0 Calma 4 Norte 0 -- -- 93
2018-12-05 07:00:00 7.6 0 Calma 5 Nordeste 0 -- -- 93
2018-12-05 06:00:00 7.4 0 Calma 8 Nordeste 0 -- -- 92
2018-12-05 05:00:00 7.4 0 Calma 5 Nordeste 0 -- -- 93
2018-12-05 04:00:00 7.2 2 Nordeste 4 Este 0 -- -- 93
2018-12-05 03:00:00 7.5 3 Nordeste 6 Noroeste 0 -- -- 92
2018-12-05 02:00:00 7.7 2 Nordeste 4 Nordeste 0 -- -- 92
2018-12-05 01:00:00 8.1 2 Nordeste 5 Noroeste 0 -- -- 92
2018-12-05 00:00:00 8.1 0 Calma 4 Nordeste 0 -- -- 93
2018-12-04 23:00:00 8.6 3 Nordeste 4 Este 0 -- -- 91
2018-12-04 22:00:00 9.2 3 Nordeste 5 Nordeste 0 -- -- 91
2018-12-04 21:00:00 9.6 3 Nordeste 4 Este 0 -- -- 91
2018-12-04 20:00:00 10.3 0 Calma 4 Noroeste 0 -- -- 91
2018-12-04 19:00:00 11.3 0 Calma 13 Sudoeste 0 -- -- 90
2018-12-04 18:00:00 12.2 3 Sudoeste 13 Sudoeste 0 -- -- 89
2018-12-04 17:00:00 15.4 8 Sudoeste 18 Sudoeste 0 -- -- 77
2018-12-04 16:00:00 16.5 9 Sudoeste 25 Sudoeste 0 -- -- 67
2018-12-04 15:00:00 17.4 13 Sudoeste 26 Sudoeste 0 -- -- 61
2018-12-04 14:00:00 17.8 12 Sudoeste 24 Sudoeste 0 -- -- 60
2018-12-04 13:00:00 17.3 11 Sudoeste 23 Sudoeste 0 -- -- 60
2018-12-04 12:00:00 14.5 0 Calma 3 Norte 0 -- -- 89
2018-12-04 11:00:00 11.8 0 Calma 5 Noroeste 0 -- -- 91
2018-12-04 10:00:00 10 4 Nordeste 6 Noroeste 0 -- -- 93
2018-12-04 09:00:00 8.7 2 Norte 8 Noroeste 0 -- -- 93
2018-12-04 08:00:00 8.3 2 Norte 9 Noroeste 0 -- -- 93
2018-12-04 07:00:00 7.8 2 Norte 9 Noroeste 0 -- -- 93
2018-12-04 06:00:00 7.2 0 Calma 5 Noroeste 0 -- -- 92
2018-12-04 05:00:00 7.4 3 Nordeste 5 Nordeste 0 -- -- 93
2018-12-04 04:00:00 7.1 2 Nordeste 5 Este 0 -- -- 93
2018-12-04 03:00:00 7.4 2 Nordeste 5 Este 0 -- -- 92
2018-12-04 02:00:00 7.7 2 Nordeste 7 Nordeste 0 -- -- 93
2018-12-04 01:00:00 8.2 0 Calma 6 Este 0 -- -- 92
2018-12-04 00:00:00 8.2 4 Nordeste 6 Este 0 -- -- 92
2018-12-03 23:00:00 8.5 3 Nordeste 6 Este 0 -- -- 93
2018-12-03 22:00:00 8.8 2 Nordeste 5 Nordeste 0 -- -- 91
2018-12-03 21:00:00 9.2 3 Nordeste 5 Nordeste 0 -- -- 91
2018-12-03 20:00:00 9.7 0 Calma 5 Nordeste 0 -- -- 91
2018-12-03 19:00:00 10.4 0 Calma 7 Este 0 -- -- 91
2018-12-03 18:00:00 12.3 2 Nordeste 5 Noroeste 0 -- -- 90
2018-12-03 17:00:00 14.3 0 Calma 9 Este 0 -- -- 89
2018-12-03 16:00:00 15.7 0 Calma 8 Sudoeste 0 -- -- 82
2018-12-03 15:00:00 17.4 0 Calma 14 Sudoeste 0 -- -- 70
2018-12-03 14:00:00 16.6 2 Sudoeste 14 Sudoeste 0 -- -- 72
2018-12-03 13:00:00 16.5 3 Sudoeste 4 Sudoeste 0 -- -- 85
2018-12-03 12:00:00 14.1 0 Calma 3 Nordeste 0 -- -- 90
2018-12-03 11:00:00 12.4 0 Calma 5 Sudoeste 0 -- -- 92
2018-12-03 10:00:00 10.1 0 Calma 4 Nordeste 0 -- -- 93
2018-12-03 09:00:00 7.5 3 Nordeste 4 Nordeste 0 -- -- 92
2018-12-03 08:00:00 6.3 2 Nordeste 5 Este 0 -- -- 92
2018-12-03 07:00:00 5.9 2 Nordeste 6 Este 0 -- -- 92
2018-12-03 06:00:00 5.6 4 Nordeste 6 Nordeste 0 -- -- 92
2018-12-03 05:00:00 5.5 2 Este 5 Nordeste 0 -- -- 92
2018-12-03 04:00:00 5.6 3 Nordeste 6 Nordeste 0 -- -- 93
2018-12-03 03:00:00 5.9 0 Calma 4 Nordeste 0 -- -- 93
2018-12-03 02:00:00 5.9 5 Nordeste 6 Este 0 -- -- 93
2018-12-03 01:00:00 6.2 0 Calma 7 Este 0 -- -- 92
2018-12-03 00:00:00 6.3 2 Nordeste 5 Nordeste 0 -- -- 93
2018-12-02 23:00:00 6.9 0 Calma 4 Este 0 -- -- 91
2018-12-02 22:00:00 7.4 0 Calma 5 Nordeste 0 -- -- 91
2018-12-02 21:00:00 8.1 2 Nordeste 4 Nordeste 0 -- -- 91
2018-12-02 20:00:00 9.2 0 Calma 7 Oeste 0 -- -- 90
2018-12-02 19:00:00 10.1 0 Calma 5 Noroeste 0 -- -- 89
2018-12-02 18:00:00 11 0 Calma 10 Sudoeste 0 -- -- 86
2018-12-02 17:00:00 13.6 6 Sudoeste 18 Oeste 0 -- -- 74
2018-12-02 16:00:00 14.8 11 Sudoeste 25 Sudoeste 0 -- -- 65
2018-12-02 15:00:00 15.4 13 Sudoeste 24 Sudoeste 0 -- -- 56
2018-12-02 14:00:00 14.7 8 Sudoeste 14 Sudoeste 0 -- -- 57
2018-12-02 13:00:00 13.7 8 Sudoeste 16 Sudoeste 0 -- -- 63
2018-12-02 12:00:00 11.5 0 Calma 12 Este 0 -- -- 71
2018-12-02 11:00:00 8.9 6 Este 15 Este 0 -- -- 87
2018-12-02 10:00:00 6.2 0 Calma 6 Este 0 -- -- 92
2018-12-02 09:00:00 5.2 3 Nordeste 6 Este 0 -- -- 93
2018-12-02 08:00:00 4.8 0 Calma 5 Nordeste 0 -- -- 93
2018-12-02 07:00:00 5.8 3 Nordeste 6 Este 0 -- -- 92
2018-12-02 06:00:00 5.8 2 Nordeste 5 Nordeste 0 -- -- 93
2018-12-02 05:00:00 5.4 3 Nordeste 6 Este 0 -- -- 93
2018-12-02 04:00:00 5.1 2 Nordeste 6 Este 0 -- -- 92
2018-12-02 03:00:00 4.3 0 Calma 5 Noroeste 0 -- -- 93
2018-12-02 02:00:00 4 3 Nordeste 7 Este 0 -- -- 93
2018-12-02 01:00:00 4.1 2 Nordeste 4 Nordeste 0 -- -- 93
2018-12-02 00:00:00 4.5 4 Nordeste 5 Nordeste 0 -- -- 92
2018-12-01 23:00:00 5.1 3 Nordeste 4 Nordeste 0 -- -- 92
2018-12-01 22:00:00 5.4 2 Nordeste 5 Nordeste 0 -- -- 93
2018-12-01 21:00:00 5.8 2 Nordeste 5 Nordeste 0 -- -- 91
2018-12-01 20:00:00 6.1 0 Calma 4 Nordeste 0 -- -- 91
2018-12-01 19:00:00 6.8 3 Nordeste 5 Nordeste 0 -- -- 91
2018-12-01 18:00:00 7.3 0 Calma 4 Nordeste 0 -- -- 90
2018-12-01 17:00:00 8.9 0 Calma 3 Sudoeste 0 -- -- 87
2018-12-01 16:00:00 11.8 2 Sudoeste 8 Sudoeste 0 -- -- 74
2018-12-01 15:00:00 13.8 5 Sudoeste 13 Sudoeste 0 -- -- 62
2018-12-01 14:00:00 12.8 7 Sudoeste 12 Sudoeste 0 -- -- 67
2018-12-01 13:00:00 12.4 5 Nordeste 12 Este 0 -- -- 70
2018-12-01 12:00:00 10.2 0 Calma 8 Nordeste 0 -- -- 81
2018-12-01 11:00:00 9.4 6 Nordeste 12 Nordeste 0 -- -- 83
2018-12-01 10:00:00 7.5 9 Nordeste 14 Nordeste 0 -- -- 91
2018-12-01 09:00:00 7.3 2 Norte 5 Nordeste 0 -- -- 92
2018-12-01 08:00:00 6 2 Nordeste 7 Noroeste 0 -- -- 92
2018-12-01 07:00:00 5.4 5 Nordeste 6 Nordeste 0 -- -- 93
2018-12-01 06:00:00 5.5 5 Este 12 Nordeste 0 -- -- 92
2018-12-01 05:00:00 5.7 7 Nordeste 13 Nordeste 0 -- -- 92
2018-12-01 04:00:00 5.2 6 Nordeste 17 Norte 0 -- -- 93
2018-12-01 03:00:00 5.2 4 Nordeste 9 Nordeste 0 -- -- 92
2018-12-01 02:00:00 5.6 3 Nordeste 8 Este 0 -- -- 93
2018-12-01 01:00:00 5.1 4 Nordeste 9 Nordeste 0 -- -- 93
2018-12-01 00:00:00 5.2 3 Nordeste 8 Nordeste 0 -- -- 92
2018-11-30 23:00:00 5.3 3 Nordeste 9 Noroeste 0 -- -- 92
2018-11-30 22:00:00 5.4 2 Nordeste 5 Nordeste 0 -- -- 93
2018-11-30 21:00:00 6 0 Calma 5 Noroeste 0 -- -- 92
2018-11-30 20:00:00 6.7 2 Nordeste 6 Noroeste 0 -- -- 92
2018-11-30 19:00:00 7.3 0 Calma 10 Noroeste 0 -- -- 92
2018-11-30 18:00:00 8.5 2 Nordeste 5 Este 0 -- -- 93
2018-11-30 17:00:00 10.1 0 Calma 4 Oeste 0 -- -- 91
2018-11-30 16:00:00 11.1 0 Calma 3 Sur 0.1 -- -- 91
2018-11-30 15:00:00 11.2 0 Calma 8 Noroeste 0.1 -- -- 90
2018-11-30 14:00:00 10.4 3 Norte 15 Nordeste 0.9 -- -- 90
2018-11-30 13:00:00 11 5 Noroeste 14 Noroeste 0.2 -- -- 86
2018-11-30 12:00:00 11.6 5 Noroeste 9 Noroeste 0 -- -- 73
2018-11-30 11:00:00 11.4 0 Calma 14 Este 0 -- -- 80
2018-11-30 10:00:00 10 9 Nordeste 15 Este 0 -- -- 83
2018-11-30 09:00:00 9.7 2 Noroeste 13 Nordeste 0.1 -- -- 88
2018-11-30 08:00:00 9.9 4 Nordeste 14 Norte 0 -- -- 86
2018-11-30 07:00:00 9.2 0 Calma 11 Noroeste 0 -- -- 91
2018-11-30 06:00:00 9.6 3 Norte 10 Noroeste 0 -- -- 93
2018-11-30 05:00:00 9.8 0 Calma 6 Sudoeste 0 -- -- 92
2018-11-30 04:00:00 10.4 0 Calma 11 Este 0 -- -- 93
2018-11-30 03:00:00 8.8 0 Calma 9 Oeste 0 -- -- 92
2018-11-30 02:00:00 8.1 0 Calma 5 Oeste 0 -- -- 93
2018-11-30 01:00:00 8.4 0 Calma 6 Oeste 0 -- -- 92
2018-11-30 00:00:00 9.1 0 Calma 6 Oeste 0 -- -- 92
2018-11-29 23:00:00 9.3 0 Calma 8 Este 0 -- -- 91
2018-11-29 22:00:00 9.3 0 Calma 8 Sudoeste 0 -- -- 91
2018-11-29 21:00:00 9.4 0 Calma 9 Oeste 0 -- -- 91
2018-11-29 20:00:00 10.4 3 Sudoeste 13 Sudoeste 0 -- -- 89
2018-11-29 19:00:00 12.6 6 Sudoeste 17 Sudoeste 0 -- -- 84
2018-11-29 18:00:00 13.2 5 Sudoeste 15 Sudoeste 0 -- -- 84
2018-11-29 17:00:00 13.4 4 Sudoeste 21 Sudeste 0 -- -- 84
2018-11-29 16:00:00 14.2 9 Sudoeste 33 Sudoeste 0 -- -- 79
2018-11-29 15:00:00 14 9 Sudoeste 25 Sudoeste 0 -- -- 77
2018-11-29 14:00:00 14.2 8 Sudoeste 24 Sudoeste 0 -- -- 74
2018-11-29 13:00:00 14.5 5 Sudoeste 29 Sur 0 -- -- 72
2018-11-29 12:00:00 14.6 9 Sudoeste 22 Sur 0 -- -- 66
2018-11-29 11:00:00 13.7 7 Sudoeste 27 Sudoeste 0 -- -- 70
2018-11-29 10:00:00 11.7 6 Sudoeste 18 Sudoeste 0 -- -- 83
2018-11-29 09:00:00 6.1 0 Calma 8 Sudoeste 0 -- -- 92
2018-11-29 08:00:00 5.6 0 Calma 4 Nordeste 0 -- -- 93
2018-11-29 07:00:00 5.4 0 Calma 5 Este 0 -- -- 92
2018-11-29 06:00:00 5.6 2 Nordeste 5 Este 0 -- -- 92
2018-11-29 05:00:00 5.3 0 Calma 5 Nordeste 0 -- -- 93
2018-11-29 04:00:00 5.5 2 Nordeste 5 Este 0 -- -- 93
2018-11-29 03:00:00 6 0 Calma 6 Este 0 -- -- 93
2018-11-29 02:00:00 6.1 3 Nordeste 7 Este 0 -- -- 93
2018-11-29 01:00:00 6.2 4 Nordeste 9 Este 0 -- -- 92
2018-11-29 00:00:00 6.2 4 Nordeste 7 Este 0 -- -- 91
2018-11-28 23:00:00 6.6 4 Nordeste 7 Noroeste 0 -- -- 91
2018-11-28 22:00:00 6.6 0 Calma 4 Este 0 -- -- 91
2018-11-28 21:00:00 7 2 Nordeste 5 Noroeste 0 -- -- 91
2018-11-28 13:00:00 14.6 7 Sudoeste 14 Sudoeste 0 -- -- 65
2018-11-28 12:00:00 12.9 8 Sudoeste 13 Sudoeste 0 -- -- 78
2018-11-28 11:00:00 9.9 6 Nordeste 11 Nordeste 0 -- -- 85
2018-11-28 10:00:00 6.9 6 Este 14 Nordeste 0 -- -- 89
2018-11-28 09:00:00 6.1 4 Nordeste 9 Norte 0 -- -- 91
2018-11-28 08:00:00 6.5 7 Norte 13 Nordeste 0 -- -- 91
2018-11-28 07:00:00 5.4 3 Nordeste 10 Nordeste 0 -- -- 93
2018-11-28 06:00:00 5.1 5 Nordeste 14 Nordeste 0 -- -- 92
2018-11-28 05:00:00 4.3 4 Nordeste 5 Este 0 -- -- 92
2018-11-28 04:00:00 4.3 3 Nordeste 5 Noroeste 0 -- -- 93
2018-11-28 03:00:00 4.3 0 Calma 4 Nordeste 0 -- -- 93
2018-11-28 02:00:00 4.4 3 Nordeste 6 Este 0 -- -- 93
2018-11-28 01:00:00 5 4 Nordeste 7 Este 0 -- -- 93
2018-11-28 00:00:00 5.3 6 Nordeste 8 Este 0 -- -- 92
2018-11-27 23:00:00 5.3 4 Nordeste 7 Nordeste 0 -- -- 93
2018-11-27 22:00:00 5.5 5 Nordeste 6 Nordeste 0 -- -- 92
2018-11-27 21:00:00 5.6 4 Nordeste 6 Este 0 -- -- 91
2018-11-27 20:00:00 6.2 3 Nordeste 5 Nordeste 0 -- -- 91
2018-11-27 19:00:00 6.9 3 Nordeste 6 Nordeste 0 -- -- 90
2018-11-27 18:00:00 8.2 2 Norte 6 Norte 0 -- -- 89
2018-11-27 17:00:00 9.8 0 Calma 11 Sudoeste 0 -- -- 84
2018-11-27 16:00:00 12.3 5 Sudoeste 15 Sudoeste 0 -- -- 62
2018-11-27 15:00:00 14 7 Sudoeste 19 Sudoeste 0 -- -- 54
2018-11-27 14:00:00 13.5 12 Sudoeste 24 Sudoeste 0 -- -- 57
2018-11-27 13:00:00 13 4 Sudoeste 13 Sudoeste 0 -- -- 69
2018-11-27 12:00:00 10.6 6 Nordeste 17 Este 0 -- -- 68
2018-11-27 11:00:00 7.8 11 Este 22 Este 0 -- -- 78
2018-11-27 10:00:00 4.6 4 Nordeste 6 Nordeste 0 -- -- 92
2018-11-27 09:00:00 3.2 0 Calma 6 Nordeste 0 -- -- 93
2018-11-27 08:00:00 2.6 0 Calma 6 Nordeste 0 -- -- 93
2018-11-27 07:00:00 2.5 2 Nordeste 6 Este 0 -- -- 92
2018-11-27 06:00:00 2.7 2 Nordeste 8 Nordeste 0 -- -- 92
2018-11-27 05:00:00 4 2 Noroeste 12 Nordeste 0 -- -- 92
2018-11-27 04:00:00 5 3 Noroeste 12 Noroeste 0 -- -- 92
2018-11-27 03:00:00 4.5 3 Noroeste 14 Nordeste 0 -- -- 92
2018-11-27 02:00:00 4.7 3 Este 19 Este 0 -- -- 93
2018-11-27 01:00:00 4.2 2 Nordeste 6 Este 0 -- -- 92
2018-11-27 00:00:00 4.6 4 Nordeste 8 Nordeste 0 -- -- 93
2018-11-26 23:00:00 5 3 Nordeste 6 Nordeste 0.1 -- -- 92
2018-11-26 22:00:00 5.8 0 Calma 5 Oeste 0 -- -- 91
2018-11-26 21:00:00 6.7 0 Calma 10 Noroeste 0 -- -- 91
2018-11-26 20:00:00 7 0 Calma 9 Noroeste 0 -- -- 93
2018-11-26 19:00:00 7.2 0 Calma 7 Noroeste 0 -- -- 91
2018-11-26 18:00:00 8.1 0 Calma 4 Noroeste 0 -- -- 91
2018-11-26 17:00:00 9.8 0 Calma 13 Sudoeste 0 -- -- 88
2018-11-26 16:00:00 12.3 4 Sudoeste 19 Sudoeste 0 -- -- 66
2018-11-26 15:00:00 13.5 4 Sudoeste 19 Oeste 0 -- -- 71
2018-11-26 14:00:00 10.6 7 Sudoeste 18 Sudoeste 0 -- -- 91
2018-11-26 13:00:00 9.3 3 Noroeste 6 Noroeste 0 -- -- 93
2018-11-26 12:00:00 8.7 0 Calma 14 Nordeste 0 -- -- 91
2018-11-26 11:00:00 8.5 10 Nordeste 17 Nordeste 1.3 -- -- 90
2018-11-26 10:00:00 7.9 8 Norte 21 Norte 2.3 -- -- 90
2018-11-26 09:00:00 8.3 9 Nordeste 14 Nordeste 0.7 -- -- 90
2018-11-26 08:00:00 7.7 0 Calma 12 Oeste 0.6 -- -- 91
2018-11-26 07:00:00 8 5 Nordeste 16 Nordeste 0 -- -- 85
2018-11-26 06:00:00 8.1 4 Nordeste 10 Nordeste 0 -- -- 88
2018-11-26 05:00:00 8.1 4 Nordeste 10 Nordeste 0 -- -- 88
2018-11-26 04:00:00 7.3 3 Nordeste 7 Nordeste 0 -- -- 90
2018-11-26 03:00:00 7.4 4 Este 10 Nordeste 0 -- -- 89
2018-11-26 02:00:00 6.8 3 Nordeste 6 Nordeste 0 -- -- 91
2018-11-26 01:00:00 6.6 4 Este 8 Este 0 -- -- 90
2018-11-26 00:00:00 6.6 4 Nordeste 8 Este 0 -- -- 90
2018-11-25 23:00:00 7.1 0 Calma 8 Nordeste 0 -- -- 90
2018-11-25 22:00:00 7.3 2 Este 6 Oeste 0 -- -- 90
2018-11-25 21:00:00 7.8 0 Calma 4 Nordeste 0 -- -- 89
2018-11-25 20:00:00 7.9 0 Calma 5 Noroeste 0 -- -- 86
2018-11-25 19:00:00 9 0 Calma 8 Noroeste 0 -- -- 79
2018-11-25 18:00:00 10.5 4 Noroeste 11 Oeste 0 -- -- 70
2018-11-25 17:00:00 11.5 4 Noroeste 13 Noroeste 0 -- -- 64
2018-11-25 16:00:00 13 0 Calma 18 Sudoeste 0 -- -- 59
2018-11-25 15:00:00 15 10 Sudoeste 27 Sudoeste 0 -- -- 51
2018-11-25 14:00:00 15.7 8 Sudoeste 27 Oeste 0 -- -- 49
2018-11-25 13:00:00 15.6 7 Oeste 30 Noroeste 0 -- -- 46
2018-11-25 12:00:00 14 5 Sudoeste 35 Oeste 0 -- -- 52
2018-11-25 11:00:00 12.7 10 Oeste 32 Oeste 0 -- -- 51
2018-11-25 10:00:00 12.7 6 Oeste 31 Sudoeste 0 -- -- 50
2018-11-25 09:00:00 11.4 10 Sudoeste 35 Sudoeste 0 -- -- 51
2018-11-25 08:00:00 11.2 14 Sudoeste 28 Sudoeste 0 -- -- 51
2018-11-25 07:00:00 11.5 6 Oeste 27 Noroeste 0 -- -- 51
2018-11-25 06:00:00 9.7 4 Oeste 24 Oeste 0 -- -- 61
2018-11-25 05:00:00 10 2 Oeste 24 Oeste 0 -- -- 64
2018-11-25 04:00:00 4.8 2 Este 7 Este 0 -- -- 93
2018-11-25 03:00:00 4.1 0 Calma 7 Este 0 -- -- 92
2018-11-25 02:00:00 4.9 2 Nordeste 7 Este 0 -- -- 92
2018-11-25 01:00:00 5 4 Este 7 Este 0 -- -- 93
2018-11-25 00:00:00 5.2 3 Este 5 Este 0 -- -- 93
2018-11-24 23:00:00 5.5 0 Calma 5 Nordeste 0 -- -- 93
2018-11-24 22:00:00 5.9 0 Calma 4 Nordeste 0 -- -- 93
2018-11-24 21:00:00 6.2 3 Nordeste 5 Este 0 -- -- 91
2018-11-24 20:00:00 6.6 2 Nordeste 4 Nordeste 0 -- -- 91
2018-11-24 19:00:00 7.5 3 Nordeste 4 Noroeste 0 -- -- 91
2018-11-24 18:00:00 8.4 0 Calma 3 Este 0 -- -- 90
2018-11-24 17:00:00 10 0 Calma 8 Sudoeste 0 -- -- 85
2018-11-24 16:00:00 13.1 5 Sudoeste 15 Sudoeste 0 -- -- 68
2018-11-24 15:00:00 14.1 11 Sudoeste 18 Sudoeste 0 -- -- 62
2018-11-24 14:00:00 14.5 6 Sudoeste 18 Sudoeste 0 -- -- 62
2018-11-24 13:00:00 13.8 0 Calma 12 Nordeste 0 -- -- 65
2018-11-24 12:00:00 12.9 0 Calma 10 Nordeste 0 -- -- 80
2018-11-24 11:00:00 9.9 0 Calma 8 Este 0 -- -- 91
2018-11-24 10:00:00 8.4 5 Este 7 Este 0 -- -- 91
2018-11-24 09:00:00 7.2 6 Nordeste 10 Nordeste 0 -- -- 93
2018-11-24 08:00:00 6.9 3 Nordeste 6 Nordeste 0 -- -- 93
2018-11-24 07:00:00 6.7 4 Este 6 Este 0 -- -- 92
2018-11-24 06:00:00 5.4 5 Nordeste 6 Nordeste 0 -- -- 93
2018-11-24 05:00:00 4.6 3 Nordeste 6 Este 0 -- -- 93
2018-11-24 04:00:00 4.6 0 Calma 7 Este 0 -- -- 92
2018-11-24 03:00:00 4.5 4 Nordeste 5 Este 0 -- -- 93
2018-11-24 02:00:00 4.7 3 Nordeste 7 Nordeste 0 -- -- 92
2018-11-24 01:00:00 5.1 2 Este 6 Este 0 -- -- 93
2018-11-24 00:00:00 5.7 0 Calma 7 Sudeste 0 -- -- 92
2018-11-23 23:00:00 6.4 0 Calma 9 Noroeste 0 -- -- 93
2018-11-23 22:00:00 7.1 0 Calma 5 Este 0 -- -- 93
2018-11-23 21:00:00 8.4 0 Calma 5 Sudoeste 0 -- -- 93
2018-11-23 20:00:00 9.6 2 Este 8 Nordeste 0 -- -- 92
2018-11-23 19:00:00 11 0 Calma 9 Nordeste 0 -- -- 91
2018-11-23 18:00:00 12.3 4 Norte 12 Noroeste 0 -- -- 91
2018-11-23 17:00:00 12.3 0 Calma 25 Oeste 0.3 -- -- 91
2018-11-23 16:00:00 12.6 6 Sudoeste 18 Oeste 0.6 -- -- 91
2018-11-23 15:00:00 13.5 3 Sudoeste 8 Sudoeste 0 -- -- 91
2018-11-23 14:00:00 13.3 0 Calma 12 Este 0 -- -- 91
2018-11-23 13:00:00 12.4 4 Nordeste 10 Este 0.3 -- -- 91
2018-11-23 12:00:00 12.6 3 Nordeste 7 Nordeste 0.3 -- -- 90
2018-11-23 11:00:00 11.6 0 Calma 6 Nordeste 0 -- -- 85
2018-11-23 10:00:00 12.2 4 Nordeste 7 Este 0 -- -- 80
2018-11-23 09:00:00 9.2 2 Noroeste 7 Noroeste 0 -- -- 91
2018-11-23 08:00:00 8.4 0 Calma 4 Este 0 -- -- 91
2018-11-23 07:00:00 8.3 0 Calma 5 Este 0 -- -- 91
2018-11-23 06:00:00 8.2 0 Calma 4 Nordeste 0 -- -- 91
2018-11-23 05:00:00 7.8 0 Calma 6 Este 0 -- -- 91
2018-11-23 04:00:00 7.5 2 Este 5 Este 0 -- -- 91
2018-11-23 03:00:00 7.2 0 Calma 5 Noroeste 0 -- -- 91
2018-11-23 02:00:00 7.3 2 Este 4 Este 0 -- -- 91
2018-11-23 01:00:00 7.9 2 Nordeste 4 Este 0 -- -- 91
2018-11-23 00:00:00 8.6 0 Calma 6 Este 0 -- -- 91
2018-11-22 23:00:00 9.3 2 Nordeste 3 Este 0 -- -- 90
2018-11-22 22:00:00 9.3 0 Calma 4 Este 0 -- -- 90
2018-11-22 21:00:00 9.8 0 Calma 5 Este 0 -- -- 88
2018-11-22 20:00:00 10.3 0 Calma 6 Noroeste 0 -- -- 85
2018-11-22 19:00:00 10.6 0 Calma 8 Noroeste 0 -- -- 84
2018-11-22 18:00:00 11 0 Calma 4 Sudoeste 0 -- -- 85
2018-11-22 17:00:00 12.8 0 Calma 5 Sudoeste 0 -- -- 80
2018-11-22 16:00:00 14.6 0 Calma 9 Sudoeste 0 -- -- 67
2018-11-22 15:00:00 15.6 3 Sudoeste 16 Oeste 0 -- -- 50
2018-11-22 14:00:00 15.7 5 Sudoeste 18 Sudoeste 0 -- -- 50
2018-11-22 13:00:00 15.9 3 Sudoeste 12 Oeste 0 -- -- 54
2018-11-22 12:00:00 14.4 3 Oeste 10 Noroeste 0 -- -- 69
2018-11-22 11:00:00 11.4 0 Calma 5 Sudoeste 0 -- -- 91
2018-11-22 10:00:00 8.5 0 Calma 5 Noroeste 0 -- -- 91
2018-11-22 09:00:00 7.8 2 Nordeste 6 Este 0 -- -- 91
2018-11-22 08:00:00 6.5 0 Calma 5 Noroeste 0 -- -- 93
2018-11-22 07:00:00 6.2 0 Calma 5 Este 0 -- -- 93
2018-11-22 06:00:00 5.7 0 Calma 5 Este 0 -- -- 91
2018-11-22 05:00:00 5.6 3 Este 5 Este 0 -- -- 92
2018-11-22 04:00:00 5.5 3 Nordeste 4 Este 0 -- -- 91
2018-11-22 03:00:00 5.9 2 Nordeste 4 Nordeste 0 -- -- 91
2018-11-22 02:00:00 6.6 0 Calma 7 Este 0 -- -- 90
2018-11-22 01:00:00 7.7 3 Nordeste 14 Sudoeste 0 -- -- 86
2018-11-22 00:00:00 12.5 7 Sudoeste 19 Sudoeste 0 -- -- 56
2018-11-21 23:00:00 13 3 Sudoeste 17 Sudoeste 0 -- -- 55
2018-11-21 22:00:00 12.8 3 Sudoeste 12 Oeste 0 -- -- 56
2018-11-21 21:00:00 10.7 0 Calma 13 Nordeste 0 -- -- 69
2018-11-21 20:00:00 12.5 0 Calma 9 Sudeste 0 -- -- 66
2018-11-21 19:00:00 12.6 0 Calma 13 Sudoeste 0 -- -- 65
2018-11-21 18:00:00 12.2 6 Sudoeste 14 Sudoeste 0 -- -- 76
2018-11-21 17:00:00 12.5 5 Sudoeste 15 Sudoeste 0 -- -- 79
2018-11-21 16:00:00 16 8 Sudoeste 21 Sur 0 -- -- 54
2018-11-21 15:00:00 15.9 11 Sudoeste 27 Sudoeste 0 -- -- 56
2018-11-21 14:00:00 15.6 7 Sudoeste 23 Noroeste 0 -- -- 60
2018-11-21 13:00:00 14.2 6 Nordeste 16 Este 0 -- -- 74
2018-11-21 12:00:00 10.5 6 Este 15 Este 0 -- -- 90
2018-11-21 11:00:00 9.7 6 Este 13 Este 0 -- -- 93
2018-11-21 10:00:00 7.3 0 Calma 5 Este 0 -- -- 93
2018-11-21 09:00:00 5.5 0 Calma 6 Noroeste 0 -- -- 92
2018-11-21 08:00:00 5.1 0 Calma 7 Este 0 -- -- 93
2018-11-21 07:00:00 5 0 Calma 6 Este 0 -- -- 93
2018-11-21 06:00:00 5.2 3 Nordeste 6 Este 0 -- -- 93
2018-11-21 05:00:00 5.6 5 Este 7 Este 0 -- -- 92
2018-11-21 04:00:00 6.1 2 Norte 8 Noroeste 0 -- -- 93
2018-11-21 03:00:00 6.4 6 Nordeste 9 Este 0 -- -- 92
2018-11-21 02:00:00 6.6 0 Calma 6 Este 0 -- -- 93
2018-11-21 01:00:00 7.4 3 Nordeste 5 Nordeste 0 -- -- 93
2018-11-21 00:00:00 8.6 0 Calma 5 Nordeste 0 -- -- 91
2018-11-20 23:00:00 9.2 3 Nordeste 13 Este 0.1 -- -- 91
2018-11-20 22:00:00 9.7 2 Norte 19 Sudeste 1.9 -- -- 89
2018-11-20 21:00:00 9.4 2 Nordeste 5 Nordeste 0 -- -- 93
2018-11-20 20:00:00 9.1 0 Calma 5 Nordeste 0 -- -- 93
2018-11-20 19:00:00 10 0 Calma 6 Nordeste 0 -- -- 91
2018-11-20 18:00:00 11.4 0 Calma 4 Nordeste 0 -- -- 91
2018-11-20 17:00:00 12.3 0 Calma 7 Sudoeste 0 -- -- 91
2018-11-20 16:00:00 13.3 3 Oeste 8 Oeste 0 -- -- 90
2018-11-20 15:00:00 13.5 0 Calma 6 Sudeste 0.1 -- -- 89
2018-11-20 14:00:00 12.7 3 Sudoeste 12 Sudoeste 0.3 -- -- 89
2018-11-20 13:00:00 13.4 6 Sudoeste 13 Sudoeste 0 -- -- 75
2018-11-20 12:00:00 13.7 3 Oeste 11 Sudoeste 0 -- -- 74
2018-11-20 11:00:00 12.8 0 Calma 11 Este 0 -- -- 83
2018-11-20 10:00:00 10.6 4 Nordeste 10 Este 0 -- -- 91
2018-11-20 09:00:00 8.7 2 Nordeste 9 Noroeste 0.1 -- -- 91
2018-11-20 08:00:00 7.6 3 Noroeste 7 Noroeste 0 -- -- 91
2018-11-20 07:00:00 7.4 3 Nordeste 5 Nordeste 0 -- -- 91
2018-11-20 06:00:00 7.7 0 Calma 6 Nordeste 0 -- -- 91
2018-11-20 05:00:00 7.8 2 Nordeste 8 Este 0 -- -- 91
2018-11-20 04:00:00 7.8 4 Nordeste 6 Nordeste 0 -- -- 91
2018-11-20 03:00:00 8.4 2 Nordeste 6 Nordeste 0.1 -- -- 90
2018-11-20 02:00:00 9.4 2 Norte 11 Noroeste 0 -- -- 82
2018-11-20 01:00:00 10 5 Nordeste 11 Nordeste 0 -- -- 79
2018-11-20 00:00:00 9.8 4 Norte 14 Nordeste 0 -- -- 79
2018-11-19 23:00:00 9.7 5 Norte 15 Nordeste 0 -- -- 79
2018-11-19 22:00:00 9.7 9 Nordeste 17 Nordeste 0 -- -- 76
2018-11-19 21:00:00 9.9 10 Nordeste 22 Nordeste 0 -- -- 80
2018-11-19 20:00:00 9.6 5 Norte 18 Nordeste 0 -- -- 84
2018-11-19 19:00:00 10.2 11 Nordeste 19 Nordeste 0 -- -- 80
2018-11-19 18:00:00 10.2 6 Nordeste 12 Nordeste 0 -- -- 80
2018-11-19 17:00:00 11.8 8 Nordeste 19 Nordeste 0 -- -- 68
2018-11-19 16:00:00 13.1 9 Nordeste 21 Nordeste 0 -- -- 63
2018-11-19 15:00:00 13.5 9 Nordeste 22 Nordeste 0 -- -- 60
2018-11-19 14:00:00 13.1 7 Nordeste 20 Nordeste 0 -- -- 69
2018-11-19 13:00:00 13.4 9 Nordeste 22 Nordeste 0 -- -- 66
2018-11-19 12:00:00 12.6 8 Nordeste 19 Nordeste 0 -- -- 71
2018-11-19 11:00:00 12.4 7 Norte 18 Noroeste 0 -- -- 76
2018-11-19 10:00:00 11.1 9 Noroeste 20 Norte 0 -- -- 80
2018-11-19 09:00:00 10.6 10 Noroeste 22 Norte 0 -- -- 81
2018-11-19 08:00:00 10.2 6 Norte 19 Noroeste 0 -- -- 85
2018-11-19 07:00:00 10.3 9 Noroeste 20 Noroeste 0 -- -- 85
2018-11-19 06:00:00 10.4 9 Norte 25 Noroeste 0 -- -- 87
2018-11-19 05:00:00 10.1 7 Norte 23 Nordeste 0 -- -- 89
2018-11-19 04:00:00 10.3 8 Norte 22 Noroeste 0.4 -- -- 90
2018-11-19 03:00:00 10.5 8 Norte 22 Norte 0.7 -- -- 90
2018-11-19 02:00:00 10.6 9 Norte 21 Noroeste 0.1 -- -- 91
2018-11-19 01:00:00 10.6 7 Norte 18 Noroeste 0.6 -- -- 91
2018-11-19 00:00:00 10.4 0 Calma 15 Noroeste 3.1 -- -- 91
2018-11-18 23:00:00 10.8 9 Noroeste 21 Noroeste 1.2 -- -- 91
2018-11-18 22:00:00 10.9 0 Calma 8 Noroeste 0 -- -- 91
2018-11-18 21:00:00 11 2 Nordeste 6 Este 0 -- -- 91
2018-11-18 20:00:00 11.3 0 Calma 15 Este 0 -- -- 91
2018-11-18 19:00:00 11.4 4 Este 17 Nordeste 0.1 -- -- 91
2018-11-18 18:00:00 11.2 0 Calma 12 Este 2.2 -- -- 93
2018-11-18 17:00:00 11 4 Nordeste 14 Nordeste 2.8 -- -- 93
2018-11-18 16:00:00 11.2 0 Calma 13 Este 1.9 -- -- 92
2018-11-18 15:00:00 11 0 Calma 15 Noroeste 3.6 -- -- 91
2018-11-18 14:00:00 10.6 0 Calma 19 Noroeste 3.5 -- -- 91
2018-11-18 13:00:00 10.6 9 Norte 23 Nordeste 2.6 -- -- 91
2018-11-18 12:00:00 10.4 5 Nordeste 20 Norte 4.9 -- -- 91
2018-11-18 11:00:00 9.9 8 Noroeste 20 Nordeste 1.4 -- -- 91
2018-11-18 10:00:00 9.8 7 Norte 26 Nordeste 0 -- -- 91
2018-11-18 09:00:00 9 14 Nordeste 26 Nordeste 6.4 -- -- 91
2018-11-18 08:00:00 8.7 18 Nordeste 34 Nordeste 9.7 -- -- 91
2018-11-18 07:00:00 9.1 16 Nordeste 26 Este 3.4 -- -- 91
2018-11-18 06:00:00 9 9 Nordeste 22 Nordeste 0.4 -- -- 91
2018-11-18 05:00:00 9.1 13 Nordeste 25 Nordeste 2.1 -- -- 91
2018-11-18 04:00:00 9.8 11 Nordeste 19 Este 2.5 -- -- 91
2018-11-18 03:00:00 9.7 9 Noroeste 22 Noroeste 2.2 -- -- 91
2018-11-18 02:00:00 9.7 10 Nordeste 26 Nordeste 4.5 -- -- 91
2018-11-18 01:00:00 9.9 12 Nordeste 21 Nordeste 6.9 -- -- 91
2018-11-18 00:00:00 10 10 Nordeste 22 Nordeste 5.8 -- -- 91
2018-11-17 23:00:00 10.1 13 Nordeste 23 Nordeste 5.5 -- -- 91
2018-11-17 22:00:00 10.4 13 Nordeste 27 Nordeste 9.1 -- -- 91
2018-11-17 21:00:00 10.4 8 Nordeste 19 Nordeste 11.6 -- -- 91
2018-11-17 20:00:00 10.7 7 Norte 20 Nordeste 3.4 -- -- 91
2018-11-17 19:00:00 10.9 8 Nordeste 20 Nordeste 0.7 -- -- 91
2018-11-17 18:00:00 11 6 Noroeste 15 Noroeste 0.6 -- -- 91
2018-11-17 17:00:00 11.6 6 Norte 14 Nordeste 0.3 -- -- 91
2018-11-17 16:00:00 11.7 4 Norte 12 Este 1.9 -- -- 90
2018-11-17 15:00:00 13 0 Calma 10 Este 0 -- -- 89
2018-11-17 14:00:00 13.6 3 Norte 16 Nordeste 0 -- -- 86
2018-11-17 13:00:00 13.5 4 Nordeste 19 Noroeste 0 -- -- 88
2018-11-17 12:00:00 12.4 8 Noroeste 15 Noroeste 0.9 -- -- 91
2018-11-17 11:00:00 11.9 5 Noroeste 14 Nordeste 1 -- -- 91
2018-11-17 10:00:00 11.7 4 Noroeste 14 Nordeste 0.6 -- -- 90
2018-11-17 09:00:00 11.8 5 Nordeste 14 Nordeste 0.5 -- -- 89
2018-11-17 08:00:00 11.8 6 Nordeste 14 Nordeste 0.2 -- -- 86
2018-11-17 07:00:00 12.6 5 Nordeste 15 Nordeste 0 -- -- 81
2018-11-17 06:00:00 12.6 7 Norte 14 Noroeste 0 -- -- 83
2018-11-17 05:00:00 12.8 6 Nordeste 16 Nordeste 0 -- -- 83
2018-11-17 04:00:00 12.9 6 Noroeste 14 Norte 0 -- -- 83
2018-11-17 03:00:00 13.3 5 Nordeste 14 Este 0 -- -- 84
2018-11-17 02:00:00 13.4 6 Norte 17 Nordeste 0 -- -- 85
2018-11-17 01:00:00 13.5 4 Norte 12 Noroeste 0.1 -- -- 89
2018-11-17 00:00:00 13.7 4 Norte 15 Nordeste 0 -- -- 87
2018-11-16 23:00:00 14.1 6 Nordeste 14 Nordeste 0 -- -- 86
2018-11-16 22:00:00 13.9 5 Noroeste 9 Norte 0 -- -- 90
2018-11-16 21:00:00 13.6 2 Noroeste 10 Noroeste 0 -- -- 91
2018-11-16 20:00:00 13.2 0 Calma 3 Sudoeste 0 -- -- 91
2018-11-16 19:00:00 13.4 0 Calma 4 Noroeste 0 -- -- 91
2018-11-16 18:00:00 13.8 0 Calma 6 Este 0 -- -- 90
2018-11-16 17:00:00 14.4 4 Nordeste 15 Nordeste 0 -- -- 89
2018-11-16 16:00:00 15.6 7 Nordeste 16 Este 0 -- -- 82
2018-11-16 15:00:00 15.4 5 Noroeste 12 Noroeste 0 -- -- 89
2018-11-16 14:00:00 14.3 3 Norte 14 Este 0 -- -- 91
2018-11-16 13:00:00 14.4 4 Norte 14 Nordeste 0 -- -- 91
2018-11-16 12:00:00 13.6 7 Noroeste 21 Noroeste 1.8 -- -- 91
2018-11-16 11:00:00 12.6 6 Nordeste 14 Noroeste 11.8 -- -- 91
2018-11-16 10:00:00 12.8 3 Noroeste 11 Oeste 4.4 -- -- 91
2018-11-16 09:00:00 13.3 3 Nordeste 11 Este 0.1 -- -- 90
2018-11-16 08:00:00 12.7 2 Este 10 Nordeste 0 -- -- 90
2018-11-16 07:00:00 13.4 3 Norte 13 Este 0 -- -- 90
2018-11-16 06:00:00 13.1 5 Noroeste 14 Nordeste 0 -- -- 91
2018-11-16 05:00:00 12.8 5 Nordeste 12 Este 0 -- -- 91
2018-11-16 04:00:00 11.7 3 Noroeste 9 Nordeste 0 -- -- 91
2018-11-16 03:00:00 11.4 0 Calma 4 Oeste 0.1 -- -- 91
2018-11-16 02:00:00 12.3 3 Nordeste 11 Oeste 0 -- -- 91
2018-11-16 01:00:00 13.2 6 Norte 13 Norte 0 -- -- 91
2018-11-16 00:00:00 13.4 5 Norte 11 Noroeste 0.7 -- -- 91
2018-11-15 23:00:00 13 3 Norte 13 Este 2.5 -- -- 91
2018-11-15 22:00:00 13.3 7 Nordeste 16 Norte 4.7 -- -- 91
2018-11-15 21:00:00 14 6 Norte 22 Nordeste 1.3 -- -- 89
2018-11-15 20:00:00 14.1 10 Nordeste 22 Este 0 -- -- 85
2018-11-15 19:00:00 14.5 8 Nordeste 19 Nordeste 0 -- -- 90
2018-11-15 18:00:00 15.9 2 Sudeste 9 Nordeste 0 -- -- 91
2018-11-15 17:00:00 16.2 0 Calma 18 Este 2.1 -- -- 91
2018-11-15 16:00:00 17 6 Nordeste 16 Nordeste 0 -- -- 87
2018-11-15 15:00:00 17.7 8 Nordeste 21 Este 0 -- -- 84
2018-11-15 14:00:00 17.4 6 Nordeste 19 Este 0 -- -- 87
2018-11-15 13:00:00 17 5 Nordeste 13 Nordeste 0 -- -- 89
2018-11-15 12:00:00 16.8 0 Calma 9 Este 0 -- -- 91
2018-11-15 11:00:00 16.2 0 Calma 16 Este 0 -- -- 93
2018-11-15 10:00:00 16 0 Calma 7 Este 0 -- -- 93
2018-11-15 09:00:00 15.2 2 Nordeste 6 Este 0 -- -- 92
2018-11-15 08:00:00 14.7 0 Calma 6 Noroeste 0 -- -- 92
2018-11-15 07:00:00 14.4 0 Calma 10 Noroeste 0 -- -- 93
2018-11-15 06:00:00 14.2 0 Calma 12 Noroeste 0.3 -- -- 93
2018-11-15 05:00:00 13.9 3 Oeste 8 Sur 3.1 -- -- 92
2018-11-15 04:00:00 13.9 0 Calma 11 Noroeste 0.1 -- -- 93
2018-11-15 03:00:00 14.2 4 Noroeste 11 Oeste 0.7 -- -- 92
2018-11-15 02:00:00 14 0 Calma 10 Oeste 2.6 -- -- 93
2018-11-15 01:00:00 14 2 Oeste 8 Noroeste 1.9 -- -- 93
2018-11-15 00:00:00 14.3 2 Noroeste 6 Noroeste 0.9 -- -- 92
2018-11-14 23:00:00 14.4 0 Calma 6 Norte 2 -- -- 91
2018-11-14 22:00:00 14.5 2 Noroeste 11 Este 1.9 -- -- 91
2018-11-14 21:00:00 15.2 7 Nordeste 22 Este 0 -- -- 91
2018-11-14 20:00:00 15.1 0 Calma 5 Sudeste 0.7 -- -- 91
2018-11-14 19:00:00 15 0 Calma 4 Oeste 0 -- -- 91
2018-11-14 18:00:00 16 0 Calma 5 Este 0 -- -- 90
2018-11-14 17:00:00 16.9 2 Nordeste 10 Este 0 -- -- 86
2018-11-14 16:00:00 17.8 4 Nordeste 11 Este 0 -- -- 80
2018-11-14 15:00:00 18.4 5 Nordeste 13 Este 0 -- -- 75
2018-11-14 14:00:00 18.6 9 Nordeste 15 Nordeste 0 -- -- 69
2018-11-14 13:00:00 18.7 8 Este 14 Este 0 -- -- 67
2018-11-14 12:00:00 17.8 6 Este 17 Norte 0 -- -- 75
2018-11-14 11:00:00 17.7 5 Nordeste 17 Nordeste 0 -- -- 76
2018-11-14 10:00:00 16.9 8 Nordeste 14 Nordeste 0 -- -- 81
2018-11-14 09:00:00 16.3 2 Norte 11 Nordeste 0 -- -- 85
2018-11-14 08:00:00 15.5 4 Norte 12 Noroeste 0 -- -- 86
2018-11-14 07:00:00 15.4 5 Norte 22 Nordeste 0 -- -- 89
2018-11-14 06:00:00 15 7 Nordeste 17 Noroeste 0 -- -- 89
2018-11-14 05:00:00 14.7 6 Noroeste 15 Nordeste 0 -- -- 88
2018-11-14 04:00:00 15.3 5 Nordeste 21 Este 0 -- -- 86
2018-11-14 03:00:00 15.4 8 Nordeste 18 Norte 0 -- -- 84
2018-11-14 02:00:00 15.5 6 Norte 19 Noroeste 0 -- -- 84
2018-11-14 01:00:00 15.5 6 Nordeste 13 Este 0 -- -- 83
2018-11-14 00:00:00 15.7 5 Norte 16 Norte 0 -- -- 81
2018-11-13 23:00:00 15.9 5 Norte 17 Noroeste 0 -- -- 84
2018-11-13 22:00:00 15.8 7 Norte 18 Noroeste 0 -- -- 84
2018-11-13 21:00:00 15.9 9 Noroeste 18 Norte 0 -- -- 84
2018-11-13 20:00:00 16.4 8 Norte 21 Noroeste 0 -- -- 82
2018-11-13 19:00:00 16.2 7 Norte 23 Nordeste 0 -- -- 82
2018-11-13 18:00:00 16.7 9 Norte 23 Nordeste 0 -- -- 79
2018-11-13 17:00:00 17.7 6 Norte 27 Este 0 -- -- 75
2018-11-13 16:00:00 19.2 9 Nordeste 30 Este 0 -- -- 69
2018-11-13 15:00:00 19.2 9 Nordeste 27 Este 0 -- -- 69
2018-11-13 14:00:00 19.6 9 Nordeste 26 Este 0 -- -- 66
2018-11-13 13:00:00 18.6 8 Nordeste 31 Nordeste 0 -- -- 69
2018-11-13 12:00:00 19 11 Nordeste 26 Nordeste 0 -- -- 67
2018-11-13 11:00:00 17.9 10 Nordeste 23 Noroeste 0 -- -- 74
2018-11-13 10:00:00 16.5 10 Nordeste 27 Este 0 -- -- 75
2018-11-13 09:00:00 15.7 12 Nordeste 23 Nordeste 0 -- -- 78
2018-11-13 08:00:00 15.3 8 Norte 24 Norte 0 -- -- 81
2018-11-13 07:00:00 14.6 12 Nordeste 27 Norte 0 -- -- 82
2018-11-13 06:00:00 14.6 12 Nordeste 23 Nordeste 0 -- -- 83
2018-11-13 05:00:00 15 9 Nordeste 18 Nordeste 0 -- -- 85
2018-11-13 04:00:00 15.2 10 Nordeste 21 Nordeste 0 -- -- 87
2018-11-13 03:00:00 15.3 9 Nordeste 17 Nordeste 0 -- -- 89
2018-11-13 02:00:00 15 5 Norte 21 Nordeste 0 -- -- 89
2018-11-13 01:00:00 15.6 9 Nordeste 21 Nordeste 0 -- -- 89
2018-11-13 00:00:00 15.7 9 Nordeste 19 Norte 0 -- -- 90
2018-11-12 23:00:00 15.9 9 Nordeste 18 Nordeste 0 -- -- 90
2018-11-12 22:00:00 15.5 0 Calma 7 Noroeste 0 -- -- 91
2018-11-12 21:00:00 15.8 0 Calma 10 Oeste 0 -- -- 90
2018-11-12 20:00:00 15.7 2 Nordeste 8 Norte 0 -- -- 91
2018-11-12 19:00:00 15.6 0 Calma 4 Sur 0 -- -- 91
2018-11-12 18:00:00 16.1 0 Calma 9 Nordeste 0 -- -- 90
2018-11-12 17:00:00 17.2 4 Nordeste 10 Nordeste 0 -- -- 87
2018-11-12 16:00:00 17.7 6 Nordeste 13 Nordeste 0 -- -- 85
2018-11-12 15:00:00 17.8 5 Nordeste 14 Este 0 -- -- 84
2018-11-12 14:00:00 17.8 6 Nordeste 12 Nordeste 0 -- -- 83
2018-11-12 13:00:00 17.8 6 Nordeste 16 Este 0 -- -- 80
2018-11-12 12:00:00 18.3 0 Calma 11 Sudoeste 0 -- -- 77
2018-11-12 11:00:00 17.1 0 Calma 9 Nordeste 0 -- -- 90
2018-11-12 10:00:00 14.5 0 Calma 3 Norte 0 -- -- 92
2018-11-12 09:00:00 12.1 0 Calma 5 Oeste 0 -- -- 93
2018-11-12 08:00:00 12 0 Calma 5 Noroeste 0 -- -- 91
2018-11-12 07:00:00 12.8 0 Calma 4 Este 0 -- -- 91
2018-11-12 06:00:00 14.3 3 Nordeste 4 Este 0 -- -- 91
2018-11-12 05:00:00 15.3 0 Calma 6 Sudoeste 0 -- -- 90
2018-11-12 04:00:00 16.1 0 Calma 18 Sudoeste 0 -- -- 87
2018-11-12 03:00:00 16 8 Sudoeste 14 Sudoeste 0 -- -- 90
2018-11-12 02:00:00 14.7 0 Calma 5 Este 0 -- -- 91
2018-11-12 01:00:00 14.8 0 Calma 8 Sudoeste 0 -- -- 91
2018-11-12 00:00:00 15.7 0 Calma 13 Sur 0 -- -- 90
2018-11-11 23:00:00 16.2 5 Sudoeste 14 Sur 0 -- -- 90
2018-11-11 22:00:00 16.3 6 Sudoeste 18 Sudoeste 0 -- -- 90
2018-11-11 21:00:00 16.4 6 Sudoeste 22 Sudoeste 0 -- -- 90
2018-11-11 20:00:00 16.2 4 Sudoeste 17 Sudoeste 0 -- -- 90
2018-11-11 19:00:00 16.3 8 Sudoeste 19 Sur 0 -- -- 90
2018-11-11 18:00:00 16.3 2 Sur 14 Sur 0 -- -- 89
2018-11-11 17:00:00 16.4 4 Sudoeste 23 Sudoeste 0 -- -- 89
2018-11-11 16:00:00 17.2 4 Sudoeste 27 Sudeste 0 -- -- 86
2018-11-11 15:00:00 18.8 10 Sudoeste 26 Sudoeste 0 -- -- 75
2018-11-11 14:00:00 19.1 8 Sudoeste 35 Sudoeste 0 -- -- 70
2018-11-11 13:00:00 19.4 7 Sur 31 Sudoeste 0 -- -- 61
2018-11-11 12:00:00 19 5 Sudoeste 32 Sudoeste 0 -- -- 61
2018-11-11 11:00:00 18.1 12 Sudoeste 26 Sudoeste 0 -- -- 62
2018-11-11 10:00:00 17.5 9 Sudoeste 24 Sudoeste 0 -- -- 62
2018-11-11 09:00:00 15.2 6 Sudoeste 22 Oeste 0 -- -- 68
2018-11-11 08:00:00 14.5 7 Sudoeste 30 Sudoeste 0 -- -- 69
2018-11-11 07:00:00 15.9 10 Sudoeste 27 Sudoeste 0 -- -- 68
2018-11-11 06:00:00 16 14 Sudoeste 27 Sudoeste 0 -- -- 69
2018-11-11 05:00:00 14.9 2 Sudoeste 27 Sudoeste 0 -- -- 69
2018-11-11 04:00:00 17.1 13 Sudoeste 31 Sudoeste 0 -- -- 60
2018-11-11 03:00:00 15.8 19 Sudoeste 33 Sudoeste 0 -- -- 69
2018-11-11 02:00:00 14.4 6 Sur 22 Sudeste 0 -- -- 71
2018-11-11 01:00:00 15.1 6 Sudoeste 27 Sudoeste 0 -- -- 68
2018-11-11 00:00:00 15.4 9 Sudoeste 25 Sudoeste 0 -- -- 65
2018-11-10 23:00:00 15.4 10 Sudoeste 30 Sur 0 -- -- 65
2018-11-10 22:00:00 14.8 5 Sudoeste 14 Sudoeste 0 -- -- 74
2018-11-10 21:00:00 14.6 0 Calma 22 Sur 0 -- -- 74
2018-11-10 20:00:00 15.6 8 Oeste 36 Oeste 0 -- -- 79
2018-11-10 19:00:00 15.5 0 Calma 24 Sudoeste 0 -- -- 83
2018-11-10 18:00:00 15.6 5 Sur 27 Sur 0 -- -- 76
2018-11-10 17:00:00 16.2 0 Calma 47 Sur 0 -- -- 68
2018-11-10 16:00:00 16.9 8 Sudoeste 30 Sudoeste 0 -- -- 65
2018-11-10 15:00:00 17.4 5 Sudoeste 39 Sudoeste 0 -- -- 62
2018-11-10 14:00:00 17.1 14 Sudoeste 37 Sudoeste 0 -- -- 66
2018-11-10 13:00:00 17 12 Sudoeste 36 Sur 0 -- -- 59
2018-11-10 12:00:00 16.3 5 Oeste 47 Sudoeste 0 -- -- 52
2018-11-10 11:00:00 15.3 9 Sudoeste 41 Sudeste 0 -- -- 53
2018-11-10 10:00:00 12.7 4 Sudoeste 28 Sudoeste 0 -- -- 61
2018-11-10 09:00:00 11.3 12 Sudoeste 24 Sudoeste 0 -- -- 68
2018-11-10 08:00:00 11 6 Sur 27 Sur 0 -- -- 70
2018-11-10 07:00:00 7.2 3 Sudoeste 13 Sur 0 -- -- 93
2018-11-10 06:00:00 6.7 0 Calma 7 Nordeste 0 -- -- 93
2018-11-10 05:00:00 6.1 0 Calma 5 Nordeste 0 -- -- 93
2018-11-10 04:00:00 6.3 3 Nordeste 5 Nordeste 0 -- -- 92
2018-11-10 03:00:00 6.7 2 Nordeste 5 Nordeste 0 -- -- 93
2018-11-10 02:00:00 7.3 0 Calma 6 Este 0 -- -- 93
2018-11-10 01:00:00 7.5 4 Nordeste 6 Nordeste 0 -- -- 93
2018-11-10 00:00:00 7.7 0 Calma 5 Nordeste 0 -- -- 93